| time (UTC) | temp F | wind direction | speed knots | gust knots | rain 1hr in | rain 24hr in | rain mn in | humidity % | barometer mb |
| 20260505124756 | 60 | 0.0 | 0.0 | 0.00 | 0.00 | 0.00 | 28 | ||
| 20260505124206 | 62 | 0.0 | 0.0 | 0.00 | 0.00 | 0.00 | 27 | ||
| 20260505123706 | 64 | 0.0 | 0.0 | 0.00 | 0.00 | 0.00 | 27 | ||
| 20260505123116 | 66 | 0.0 | 0.0 | 0.00 | 0.00 | 0.00 | 26 | ||
| 20260505122526 | 66 | 0.0 | 0.0 | 0.00 | 0.00 | 0.00 | 28 | ||
| 20260505121936 | 65 | 0.0 | 0.0 | 0.00 | 0.00 | 0.00 | 28 | ||
| 20260505121436 | 65 | 0.0 | 0.0 | 0.00 | 0.00 | 0.00 | 29 | ||
| 20260505120846 | 63 | 0.0 | 0.0 | 0.00 | 0.00 | 0.00 | 29 | ||
| 20260505120256 | 62 | 0.0 | 0.0 | 0.00 | 0.00 | 0.00 | 30 | ||
| 20260505115707 | 61 | 0.0 | 0.0 | 0.00 | 0.00 | 0.00 | 30 | ||
| 20260505115116 | 60 | 0.0 | 0.0 | 0.00 | 0.00 | 0.00 | 33 | ||
| 20260505114527 | 58 | 0.0 | 0.0 | 0.00 | 0.00 | 0.00 | 35 | ||
| 20260505114026 | 55 | 0.0 | 0.0 | 0.00 | 0.00 | 0.00 | 37 | ||
| 20260505113436 | 52 | 0.0 | 0.0 | 0.00 | 0.00 | 0.00 | 37 | ||
| 20260505112846 | 49 | 0.0 | 0.0 | 0.00 | 0.00 | 0.00 | 38 | ||
| 20260505112256 | 45 | 0.0 | 0.0 | 0.00 | 0.00 | 0.00 | 39 | ||
| 20260505111756 | 44 | 0.0 | 0.0 | 0.00 | 0.00 | 0.00 | 39 | ||
| 20260505111207 | 43 | 0.0 | 0.0 | 0.00 | 0.00 | 0.00 | 39 | ||
| 20260505110616 | 42 | 0.0 | 0.0 | 0.00 | 0.00 | 0.00 | 39 | ||
| 20260505102118 | 42 | 0.0 | 0.0 | 0.00 | 0.00 | 0.00 | 37 | ||
| 20260505101526 | 42 | 0.0 | 0.0 | 0.00 | 0.00 | 0.00 | 37 | ||
| 20260505100936 | 42 | 0.0 | 0.0 | 0.00 | 0.00 | 0.00 | 37 | ||
| 20260505100346 | 42 | 0.0 | 0.0 | 0.00 | 0.00 | 0.00 | 37 | ||
| 20260505095845 | 42 | 0.0 | 0.0 | 0.00 | 0.00 | 0.00 | 37 | ||
| 20260505095256 | 42 | 0.0 | 0.0 | 0.00 | 0.00 | 0.00 | 37 | ||
| 20260505094706 | 42 | 0.0 | 0.0 | 0.00 | 0.00 | 0.00 | 37 | ||
| 20260505094116 | 43 | 0.0 | 0.0 | 0.00 | 0.00 | 0.00 | 36 | ||
| 20260505093616 | 43 | 0.0 | 0.0 | 0.00 | 0.00 | 0.00 | 36 | ||
| 20260505093026 | 43 | 0.0 | 0.0 | 0.00 | 0.00 | 0.00 | 36 | ||
| 20260505092436 | 43 | 0.0 | 0.0 | 0.00 | 0.00 | 0.00 | 36 | ||
| 20260505091847 | 43 | 0.0 | 0.0 | 0.00 | 0.00 | 0.00 | 35 | ||
| 20260505091256 | 44 | 0.0 | 0.0 | 0.00 | 0.00 | 0.00 | 35 | ||
| 20260505090706 | 44 | 0.0 | 0.0 | 0.00 | 0.00 | 0.00 | 35 | ||
| 20260505090206 | 44 | 0.0 | 0.0 | 0.00 | 0.00 | 0.00 | 35 | ||
| 20260505085616 | 44 | 0.0 | 0.0 | 0.00 | 0.00 | 0.00 | 35 | ||
| 20260505085026 | 44 | 0.0 | 0.0 | 0.00 | 0.00 | 0.00 | 35 | ||
| 20260505084436 | 44 | 0.0 | 0.0 | 0.00 | 0.00 | 0.00 | 35 | ||
| 20260505083936 | 44 | 0.0 | 0.0 | 0.00 | 0.00 | 0.00 | 35 | ||
| 20260505083346 | 45 | 0.0 | 0.0 | 0.00 | 0.00 | 0.00 | 35 | ||
| 20260505082756 | 45 | 0.0 | 0.0 | 0.00 | 0.00 | 0.00 | 35 | ||
| 20260505082206 | 45 | 0.0 | 0.0 | 0.00 | 0.00 | 0.00 | 35 | ||
| 20260505081706 | 45 | 0.0 | 0.0 | 0.00 | 0.00 | 0.00 | 35 | ||
| 20260505081117 | 46 | 0.0 | 0.0 | 0.00 | 0.00 | 0.00 | 35 | ||
| 20260505080526 | 46 | 0.0 | 0.0 | 0.00 | 0.00 | 0.00 | 35 | ||
| 20260505075936 | 46 | 0.0 | 0.0 | 0.00 | 0.00 | 0.00 | 35 | ||
| 20260505075346 | 46 | 0.0 | 0.0 | 0.00 | 0.00 | 0.00 | 34 | ||
| 20260505074757 | 47 | 0.0 | 0.0 | 0.00 | 0.00 | 0.00 | 34 | ||
| 20260505074256 | 47 | 0.0 | 0.0 | 0.00 | 0.00 | 0.00 | 34 | ||
| 20260505073706 | 47 | 0.0 | 0.0 | 0.00 | 0.00 | 0.00 | 34 | ||
| 20260505073116 | 47 | 0.0 | 0.0 | 0.00 | 0.00 | 0.00 | 34 | ||
| 20260505072526 | 47 | 0.0 | 0.0 | 0.00 | 0.00 | 0.00 | 34 | ||
| 20260505072027 | 47 | 0.0 | 0.0 | 0.00 | 0.00 | 0.00 | 34 | ||
| 20260505071436 | 47 | 0.0 | 0.0 | 0.00 | 0.00 | 0.00 | 34 | ||
| 20260505070846 | 48 | 0.0 | 0.0 | 0.00 | 0.00 | 0.00 | 34 | ||
| 20260505070256 | 48 | 0.0 | 0.0 | 0.00 | 0.00 | 0.00 | 34 | ||
| 20260505065756 | 48 | 0.0 | 0.0 | 0.00 | 0.00 | 0.00 | 35 | ||
| 20260505065206 | 48 | 0.0 | 0.0 | 0.00 | 0.00 | 0.00 | 35 | ||
| 20260505064616 | 48 | 0.0 | 0.0 | 0.00 | 0.00 | 0.00 | 34 | ||
| 20260505064026 | 49 | 0.0 | 0.0 | 0.00 | 0.00 | 0.00 | 34 | ||
| 20260505063436 | 49 | 0.0 | 0.0 | 0.00 | 0.00 | 0.00 | 34 | ||
| 20260505062846 | 49 | 0.0 | 0.0 | 0.00 | 0.00 | 0.00 | 34 | ||
| 20260505062346 | 49 | 0.0 | 0.0 | 0.00 | 0.00 | 0.00 | 34 | ||
| 20260505061756 | 49 | 0.0 | 0.0 | 0.00 | 0.00 | 0.00 | 34 | ||
| 20260505061206 | 50 | 0.0 | 0.0 | 0.00 | 0.00 | 0.00 | 34 | ||
| 20260505060616 | 50 | 0.0 | 0.0 | 0.00 | 0.00 | 0.00 | 34 | ||
| 20260505060116 | 50 | 0.0 | 0.0 | 0.00 | 0.00 | 0.00 | 34 | ||
| 20260505055526 | 50 | 0.0 | 0.0 | 0.00 | 0.00 | 0.00 | 34 | ||
| 20260505054936 | 51 | 0.0 | 0.0 | 0.00 | 0.00 | 0.00 | 33 | ||
| 20260505054346 | 51 | 0.0 | 0.0 | 0.00 | 0.00 | 0.00 | 33 | ||
| 20260505053756 | 51 | 0.0 | 0.0 | 0.00 | 0.00 | 0.00 | 33 | ||
| 20260505053206 | 51 | 0.0 | 0.0 | 0.00 | 0.00 | 0.00 | 33 | ||
| 20260505052706 | 52 | 0.0 | 0.0 | 0.00 | 0.00 | 0.00 | 32 | ||
| 20260505052116 | 52 | 0.0 | 0.0 | 0.00 | 0.00 | 0.00 | 32 | ||
| 20260505051526 | 52 | 0.0 | 0.0 | 0.00 | 0.00 | 0.00 | 32 | ||
| 20260505050936 | 53 | 0.0 | 0.0 | 0.00 | 0.00 | 0.00 | 31 | ||
| 20260505050436 | 53 | 0.0 | 0.0 | 0.00 | 0.00 | 0.00 | 31 | ||
| 20260505041256 | 55 | 0.0 | 0.0 | 0.00 | 0.00 | 0.00 | 31 | ||
| 20260505040756 | 56 | 0.0 | 0.0 | 0.00 | 0.00 | 0.00 | 31 | ||
| 20260505040206 | 56 | 0.0 | 0.0 | 0.00 | 0.00 | 0.00 | 31 | ||
| 20260505035616 | 56 | 0.0 | 0.0 | 0.00 | 0.00 | 0.00 | 31 | ||
| 20260505035026 | 56 | 0.0 | 0.0 | 0.00 | 0.00 | 0.00 | 31 | ||
| 20260505034436 | 56 | 0.0 | 0.0 | 0.00 | 0.00 | 0.00 | 30 | ||
| 20260505033346 | 57 | 0.0 | 0.0 | 0.00 | 0.00 | 0.00 | 30 | ||
| 20260505032756 | 57 | 0.0 | 0.0 | 0.00 | 0.00 | 0.00 | 30 | ||
| 20260505032206 | 57 | 0.0 | 0.0 | 0.00 | 0.00 | 0.00 | 30 | ||
| 20260505031616 | 58 | 0.0 | 0.0 | 0.00 | 0.00 | 0.00 | 30 | ||
| 20260505031116 | 58 | 0.0 | 0.0 | 0.00 | 0.00 | 0.00 | 29 | ||
| 20260505030526 | 58 | 0.0 | 0.0 | 0.00 | 0.00 | 0.00 | 29 | ||
| 20260505025936 | 58 | 0.0 | 0.0 | 0.00 | 0.00 | 0.00 | 28 | ||
| 20260505025346 | 58 | 0.0 | 0.0 | 0.00 | 0.00 | 0.00 | 28 | ||
| 20260505024846 | 58 | 0.0 | 0.0 | 0.00 | 0.00 | 0.00 | 28 | ||
| 20260505024256 | 59 | 0.0 | 0.0 | 0.00 | 0.00 | 0.00 | 28 | ||
| 20260505023706 | 59 | 0.0 | 0.0 | 0.00 | 0.00 | 0.00 | 27 | ||
| 20260505023116 | 59 | 0.0 | 0.0 | 0.00 | 0.00 | 0.00 | 27 | ||
| 20260505022526 | 60 | 0.0 | 0.0 | 0.00 | 0.00 | 0.00 | 27 | ||
| 20260505021936 | 60 | 0.0 | 0.0 | 0.00 | 0.00 | 0.00 | 27 | ||
| 20260505021346 | 60 | 0.0 | 0.0 | 0.00 | 0.00 | 0.00 | 27 | ||
| 20260505020846 | 61 | 0.0 | 0.0 | 0.00 | 0.00 | 0.00 | 27 | ||
| 20260505020256 | 61 | 0.0 | 0.0 | 0.00 | 0.00 | 0.00 | 26 | ||
| 20260505015706 | 61 | 0.0 | 0.0 | 0.00 | 0.00 | 0.00 | 27 | ||
| 20260505015116 | 62 | 0.0 | 0.0 | 0.00 | 0.00 | 0.00 | 27 | ||
| 20260505014526 | 62 | 0.0 | 0.0 | 0.00 | 0.00 | 0.00 | 27 | ||
| 20260505014026 | 62 | 0.0 | 0.0 | 0.00 | 0.00 | 0.00 | 27 | ||
| 20260505013436 | 63 | 0.0 | 0.0 | 0.00 | 0.00 | 0.00 | 26 | ||
| 20260505012846 | 63 | 0.0 | 0.0 | 0.00 | 0.00 | 0.00 | 26 | ||
| 20260505012256 | 63 | 0.0 | 0.0 | 0.00 | 0.00 | 0.00 | 26 | ||
| 20260505011756 | 64 | 0.0 | 0.0 | 0.00 | 0.00 | 0.00 | 26 | ||
| 20260505011206 | 64 | 0.0 | 0.0 | 0.00 | 0.00 | 0.00 | 26 | ||
| 20260505010616 | 64 | 0.0 | 0.0 | 0.00 | 0.00 | 0.00 | 25 | ||
| 20260505010026 | 64 | 0.0 | 0.0 | 0.00 | 0.00 | 0.00 | 25 | ||
| 20260505005436 | 65 | 0.0 | 0.0 | 0.00 | 0.00 | 0.00 | 25 | ||
| 20260505004846 | 65 | 0.0 | 0.0 | 0.00 | 0.00 | 0.00 | 24 | ||
| 20260505004346 | 65 | 0.0 | 0.0 | 0.00 | 0.00 | 0.00 | 25 | ||
| 20260505003756 | 66 | 0.0 | 0.0 | 0.00 | 0.00 | 0.00 | 24 | ||
| 20260505003206 | 66 | 0.0 | 0.0 | 0.00 | 0.00 | 0.00 | 24 | ||
| 20260505002616 | 67 | 0.0 | 0.0 | 0.00 | 0.00 | 0.00 | 24 | ||
| 20260505002115 | 67 | 0.0 | 0.0 | 0.00 | 0.00 | 0.00 | 24 | ||
| 20260505001526 | 67 | 0.0 | 0.0 | 0.00 | 0.00 | 0.00 | 24 | ||
| 20260505000936 | 67 | 0.0 | 0.0 | 0.00 | 0.00 | 0.00 | 24 | ||
| 20260505000346 | 68 | 0.0 | 0.0 | 0.00 | 0.00 | 0.00 | 24 | ||
| 20260504235756 | 68 | 0.0 | 0.0 | 0.00 | 0.00 | 0.00 | 24 | ||
| 20260504235206 | 68 | 0.0 | 0.0 | 0.00 | 0.00 | 0.00 | 23 | ||
| 20260504234706 | 69 | 0.0 | 0.0 | 0.00 | 0.00 | 0.00 | 23 | ||
| 20260504234116 | 69 | 0.0 | 0.0 | 0.00 | 0.00 | 0.00 | 24 | ||
| 20260504233526 | 69 | 0.0 | 0.0 | 0.00 | 0.00 | 0.00 | 24 | ||
| 20260504232936 | 69 | 0.0 | 0.0 | 0.00 | 0.00 | 0.00 | 24 | ||
| 20260504232436 | 70 | 0.0 | 0.0 | 0.00 | 0.00 | 0.00 | 24 | ||
| 20260504231846 | 70 | 0.0 | 0.0 | 0.00 | 0.00 | 0.00 | 24 | ||
| 20260504231256 | 70 | 0.0 | 0.0 | 0.00 | 0.00 | 0.00 | 24 | ||
| 20260504230706 | 71 | 0.0 | 0.0 | 0.00 | 0.00 | 0.00 | 24 | ||
| 20260504230116 | 71 | 0.0 | 0.0 | 0.00 | 0.00 | 0.00 | 23 | ||
| 20260504225526 | 71 | 0.0 | 0.0 | 0.00 | 0.00 | 0.00 | 23 | ||
| 20260504225025 | 72 | 0.0 | 0.0 | 0.00 | 0.00 | 0.00 | 23 | ||
| 20260504224436 | 72 | 0.0 | 0.0 | 0.00 | 0.00 | 0.00 | 24 | ||
| 20260504223846 | 73 | 0.0 | 0.0 | 0.00 | 0.00 | 0.00 | 23 | ||
| 20260504223256 | 73 | 0.0 | 0.0 | 0.00 | 0.00 | 0.00 | 24 | ||
| 20260504222756 | 73 | 0.0 | 0.0 | 0.00 | 0.00 | 0.00 | 24 | ||
| 20260504222206 | 73 | 0.0 | 0.0 | 0.00 | 0.00 | 0.00 | 24 | ||
| 20260504221616 | 74 | 0.0 | 0.0 | 0.00 | 0.00 | 0.00 | 24 | ||
| 20260504221026 | 74 | 0.0 | 0.0 | 0.00 | 0.00 | 0.00 | 24 | ||
| 20260504220436 | 74 | 0.0 | 0.0 | 0.00 | 0.00 | 0.00 | 24 | ||
| 20260504215846 | 75 | 0.0 | 0.0 | 0.00 | 0.00 | 0.00 | 24 | ||
| 20260504215346 | 75 | 0.0 | 0.0 | 0.00 | 0.00 | 0.00 | 24 | ||
| 20260504214756 | 75 | 0.0 | 0.0 | 0.00 | 0.00 | 0.00 | 24 | ||
| 20260504214206 | 75 | 0.0 | 0.0 | 0.00 | 0.00 | 0.00 | 23 | ||
| 20260504213616 | 76 | 0.0 | 0.0 | 0.00 | 0.00 | 0.00 | 24 | ||
| 20260504213026 | 76 | 0.0 | 0.0 | 0.00 | 0.00 | 0.00 | 24 | ||
| 20260504212436 | 76 | 0.0 | 0.0 | 0.00 | 0.00 | 0.00 | 24 | ||
| 20260504211936 | 76 | 0.0 | 0.0 | 0.00 | 0.00 | 0.00 | 24 | ||
| 20260504211346 | 77 | 0.0 | 0.0 | 0.00 | 0.00 | 0.00 | 24 | ||
| 20260504210756 | 77 | 0.0 | 0.0 | 0.00 | 0.00 | 0.00 | 23 | ||
| 20260504210206 | 77 | 0.0 | 0.0 | 0.00 | 0.00 | 0.00 | 23 | ||
| 20260504205705 | 78 | 0.0 | 0.0 | 0.00 | 0.00 | 0.00 | 23 | ||
| 20260504205116 | 78 | 0.0 | 0.0 | 0.00 | 0.00 | 0.00 | 23 | ||
| 20260504204526 | 78 | 0.0 | 0.0 | 0.00 | 0.00 | 0.00 | 24 | ||
| 20260504203936 | 78 | 0.0 | 0.0 | 0.00 | 0.00 | 0.00 | 24 | ||
| 20260504203346 | 78 | 0.0 | 0.0 | 0.00 | 0.00 | 0.00 | 25 | ||
| 20260504202756 | 78 | 0.0 | 0.0 | 0.00 | 0.00 | 0.00 | 25 | ||
| 20260504202256 | 78 | 0.0 | 0.0 | 0.00 | 0.00 | 0.00 | 25 | ||
| 20260504201706 | 78 | 0.0 | 0.0 | 0.00 | 0.00 | 0.00 | 25 | ||
| 20260504201116 | 78 | 0.0 | 0.0 | 0.00 | 0.00 | 0.00 | 25 | ||
| 20260504200526 | 78 | 0.0 | 0.0 | 0.00 | 0.00 | 0.00 | 25 | ||
| 20260504200025 | 77 | 0.0 | 0.0 | 0.00 | 0.00 | 0.00 | 24 | ||
| 20260504195436 | 77 | 0.0 | 0.0 | 0.00 | 0.00 | 0.00 | 25 | ||
| 20260504194846 | 77 | 0.0 | 0.0 | 0.00 | 0.00 | 0.00 | 25 | ||
| 20260504194256 | 77 | 0.0 | 0.0 | 0.00 | 0.00 | 0.00 | 25 | ||
| 20260504193706 | 77 | 0.0 | 0.0 | 0.00 | 0.00 | 0.00 | 25 | ||
| 20260504193116 | 77 | 0.0 | 0.0 | 0.00 | 0.00 | 0.00 | 24 | ||
| 20260504192616 | 77 | 0.0 | 0.0 | 0.00 | 0.00 | 0.00 | 24 | ||
| 20260504192026 | 77 | 0.0 | 0.0 | 0.00 | 0.00 | 0.00 | 24 | ||
| 20260504191436 | 78 | 0.0 | 0.0 | 0.00 | 0.00 | 0.00 | 24 | ||
| 20260504190846 | 78 | 0.0 | 0.0 | 0.00 | 0.00 | 0.00 | 24 | ||
| 20260504190256 | 78 | 0.0 | 0.0 | 0.00 | 0.00 | 0.00 | 23 | ||
| 20260504185706 | 79 | 0.0 | 0.0 | 0.00 | 0.00 | 0.00 | 24 | ||
| 20260504185206 | 79 | 0.0 | 0.0 | 0.00 | 0.00 | 0.00 | 24 | ||
| 20260504184616 | 79 | 0.0 | 0.0 | 0.00 | 0.00 | 0.00 | 23 | ||
| 20260504184026 | 80 | 0.0 | 0.0 | 0.00 | 0.00 | 0.00 | 23 | ||
| 20260504183436 | 81 | 0.0 | 0.0 | 0.00 | 0.00 | 0.00 | 22 | ||
| 20260504182936 | 81 | 0.0 | 0.0 | 0.00 | 0.00 | 0.00 | 23 | ||
| 20260504182346 | 81 | 0.0 | 0.0 | 0.00 | 0.00 | 0.00 | 23 | ||
| 20260504181756 | 81 | 0.0 | 0.0 | 0.00 | 0.00 | 0.00 | 23 | ||
| 20260504181206 | 80 | 0.0 | 0.0 | 0.00 | 0.00 | 0.00 | 23 | ||
| 20260504180616 | 80 | 0.0 | 0.0 | 0.00 | 0.00 | 0.00 | 23 | ||
| 20260504180026 | 80 | 0.0 | 0.0 | 0.00 | 0.00 | 0.00 | 25 | ||
| 20260504175526 | 80 | 0.0 | 0.0 | 0.00 | 0.00 | 0.00 | 24 | ||
| 20260504174936 | 79 | 0.0 | 0.0 | 0.00 | 0.00 | 0.00 | 24 | ||
| 20260504174346 | 78 | 0.0 | 0.0 | 0.00 | 0.00 | 0.00 | 25 | ||
| 20260504173757 | 78 | 0.0 | 0.0 | 0.00 | 0.00 | 0.00 | 24 | ||
| 20260504173256 | 79 | 0.0 | 0.0 | 0.00 | 0.00 | 0.00 | 24 | ||
| 20260504172706 | 78 | 0.0 | 0.0 | 0.00 | 0.00 | 0.00 | 24 | ||
| 20260504172116 | 78 | 0.0 | 0.0 | 0.00 | 0.00 | 0.00 | 24 | ||
| 20260504171526 | 79 | 0.0 | 0.0 | 0.00 | 0.00 | 0.00 | 23 | ||
| 20260504170936 | 79 | 0.0 | 0.0 | 0.00 | 0.00 | 0.00 | 24 | ||
| 20260504170346 | 79 | 0.0 | 0.0 | 0.00 | 0.00 | 0.00 | 24 | ||
| 20260504160206 | 78 | 0.0 | 0.0 | 0.00 | 0.00 | 0.00 | 25 | ||
| 20260504151026 | 77 | 0.0 | 0.0 | 0.00 | 0.00 | 0.00 | 27 | ||
| 20260504150526 | 77 | 0.0 | 0.0 | 0.00 | 0.00 | 0.00 | 26 | ||
| 20260504140756 | 74 | 0.0 | 0.0 | 0.00 | 0.00 | 0.00 | 30 | ||
| 20260504140206 | 74 | 0.0 | 0.0 | 0.00 | 0.00 | 0.00 | 30 |